sensor_id;sensor_type;location;lat;lon;timestamp;P1;durP1;ratioP1;P2;durP2;ratioP2
7410;SDS011;3747;48.628;9.058;2023-08-17T00:01:07;21.03;;;16.57;;
7410;SDS011;3747;48.628;9.058;2023-08-17T00:03:34;28.33;;;20.03;;
7410;SDS011;3747;48.628;9.058;2023-08-17T00:06:01;29.83;;;22.37;;
7410;SDS011;3747;48.628;9.058;2023-08-17T00:08:29;28.50;;;22.03;;
7410;SDS011;3747;48.628;9.058;2023-08-17T00:10:56;28.27;;;21.00;;
7410;SDS011;3747;48.628;9.058;2023-08-17T00:13:23;24.17;;;18.07;;
7410;SDS011;3747;48.628;9.058;2023-08-17T00:15:49;21.53;;;17.20;;
7410;SDS011;3747;48.628;9.058;2023-08-17T00:18:16;19.10;;;14.37;;
7410;SDS011;3747;48.628;9.058;2023-08-17T00:20:43;17.77;;;14.47;;
7410;SDS011;3747;48.628;9.058;2023-08-17T00:23:10;14.57;;;12.37;;
7410;SDS011;3747;48.628;9.058;2023-08-17T00:25:38;13.07;;;11.50;;
7410;SDS011;3747;48.628;9.058;2023-08-17T00:28:05;18.57;;;14.83;;
7410;SDS011;3747;48.628;9.058;2023-08-17T00:30:32;22.13;;;17.43;;
7410;SDS011;3747;48.628;9.058;2023-08-17T00:33:01;32.60;;;21.63;;
7410;SDS011;3747;48.628;9.058;2023-08-17T00:35:27;29.40;;;19.13;;
7410;SDS011;3747;48.628;9.058;2023-08-17T00:37:54;28.63;;;20.60;;
7410;SDS011;3747;48.628;9.058;2023-08-17T00:40:21;25.70;;;19.20;;
7410;SDS011;3747;48.628;9.058;2023-08-17T00:42:49;29.87;;;20.30;;
7410;SDS011;3747;48.628;9.058;2023-08-17T00:45:17;30.03;;;21.10;;
7410;SDS011;3747;48.628;9.058;2023-08-17T00:47:43;26.50;;;19.03;;
7410;SDS011;3747;48.628;9.058;2023-08-17T00:50:10;26.40;;;19.80;;
7410;SDS011;3747;48.628;9.058;2023-08-17T00:52:39;33.63;;;19.87;;
7410;SDS011;3747;48.628;9.058;2023-08-17T00:55:07;24.97;;;18.60;;
7410;SDS011;3747;48.628;9.058;2023-08-17T00:57:35;24.47;;;18.07;;
7410;SDS011;3747;48.628;9.058;2023-08-17T01:00:08;26.00;;;19.70;;
7410;SDS011;3747;48.628;9.058;2023-08-17T01:02:36;26.60;;;19.07;;
7410;SDS011;3747;48.628;9.058;2023-08-17T01:05:04;34.10;;;23.10;;
7410;SDS011;3747;48.628;9.058;2023-08-17T01:07:31;31.70;;;22.80;;
7410;SDS011;3747;48.628;9.058;2023-08-17T01:09:58;29.43;;;22.23;;
7410;SDS011;3747;48.628;9.058;2023-08-17T01:12:27;29.33;;;21.13;;
7410;SDS011;3747;48.628;9.058;2023-08-17T01:14:59;36.60;;;23.27;;
7410;SDS011;3747;48.628;9.058;2023-08-17T01:17:33;38.50;;;23.80;;
7410;SDS011;3747;48.628;9.058;2023-08-17T01:20:06;36.77;;;23.73;;
7410;SDS011;3747;48.628;9.058;2023-08-17T01:22:37;31.57;;;21.80;;
7410;SDS011;3747;48.628;9.058;2023-08-17T01:25:08;26.67;;;20.20;;
7410;SDS011;3747;48.628;9.058;2023-08-17T01:27:36;29.87;;;20.90;;
7410;SDS011;3747;48.628;9.058;2023-08-17T01:30:06;30.27;;;20.67;;
7410;SDS011;3747;48.628;9.058;2023-08-17T01:32:35;27.43;;;18.83;;
7410;SDS011;3747;48.628;9.058;2023-08-17T01:35:08;21.57;;;17.73;;
7410;SDS011;3747;48.628;9.058;2023-08-17T01:37:42;20.07;;;15.23;;
7410;SDS011;3747;48.628;9.058;2023-08-17T01:40:11;28.40;;;18.47;;
7410;SDS011;3747;48.628;9.058;2023-08-17T01:42:40;29.67;;;21.93;;
7410;SDS011;3747;48.628;9.058;2023-08-17T01:45:08;27.00;;;20.70;;
7410;SDS011;3747;48.628;9.058;2023-08-17T01:47:35;124.97;;;33.50;;
7410;SDS011;3747;48.628;9.058;2023-08-17T01:50:02;35.40;;;24.50;;
7410;SDS011;3747;48.628;9.058;2023-08-17T01:52:29;45.70;;;27.90;;
7410;SDS011;3747;48.628;9.058;2023-08-17T01:54:56;49.93;;;29.97;;
7410;SDS011;3747;48.628;9.058;2023-08-17T01:57:24;50.30;;;29.93;;
7410;SDS011;3747;48.628;9.058;2023-08-17T01:59:51;57.67;;;32.50;;
7410;SDS011;3747;48.628;9.058;2023-08-17T02:02:17;48.60;;;30.80;;
7410;SDS011;3747;48.628;9.058;2023-08-17T02:04:46;57.93;;;34.53;;
7410;SDS011;3747;48.628;9.058;2023-08-17T02:07:13;66.37;;;35.27;;
7410;SDS011;3747;48.628;9.058;2023-08-17T02:09:39;59.30;;;35.27;;
7410;SDS011;3747;48.628;9.058;2023-08-17T02:12:06;55.37;;;34.33;;
7410;SDS011;3747;48.628;9.058;2023-08-17T02:14:34;64.57;;;36.57;;
7410;SDS011;3747;48.628;9.058;2023-08-17T02:17:01;57.77;;;35.30;;
7410;SDS011;3747;48.628;9.058;2023-08-17T02:19:30;54.90;;;32.73;;
7410;SDS011;3747;48.628;9.058;2023-08-17T02:21:57;61.83;;;33.80;;
7410;SDS011;3747;48.628;9.058;2023-08-17T02:24:23;59.47;;;34.57;;
7410;SDS011;3747;48.628;9.058;2023-08-17T02:26:50;57.97;;;33.40;;
7410;SDS011;3747;48.628;9.058;2023-08-17T02:29:17;54.07;;;34.07;;
7410;SDS011;3747;48.628;9.058;2023-08-17T02:31:45;69.30;;;36.27;;
7410;SDS011;3747;48.628;9.058;2023-08-17T02:34:12;69.93;;;36.03;;
7410;SDS011;3747;48.628;9.058;2023-08-17T02:36:38;80.77;;;38.63;;
7410;SDS011;3747;48.628;9.058;2023-08-17T02:39:05;73.77;;;38.87;;
7410;SDS011;3747;48.628;9.058;2023-08-17T02:41:32;67.87;;;35.17;;
7410;SDS011;3747;48.628;9.058;2023-08-17T02:43:59;77.43;;;37.97;;
7410;SDS011;3747;48.628;9.058;2023-08-17T02:46:26;77.40;;;38.17;;
7410;SDS011;3747;48.628;9.058;2023-08-17T02:48:54;68.03;;;35.27;;
7410;SDS011;3747;48.628;9.058;2023-08-17T02:51:21;73.03;;;37.13;;
7410;SDS011;3747;48.628;9.058;2023-08-17T02:53:48;64.50;;;36.63;;
7410;SDS011;3747;48.628;9.058;2023-08-17T02:56:14;65.37;;;38.83;;
7410;SDS011;3747;48.628;9.058;2023-08-17T02:58:41;59.13;;;35.13;;
7410;SDS011;3747;48.628;9.058;2023-08-17T03:01:08;63.60;;;35.90;;
7410;SDS011;3747;48.628;9.058;2023-08-17T03:03:35;68.03;;;37.03;;
7410;SDS011;3747;48.628;9.058;2023-08-17T03:06:03;63.97;;;33.70;;
7410;SDS011;3747;48.628;9.058;2023-08-17T03:08:30;56.87;;;30.70;;
7410;SDS011;3747;48.628;9.058;2023-08-17T03:10:58;54.70;;;32.03;;
7410;SDS011;3747;48.628;9.058;2023-08-17T03:13:24;50.33;;;31.00;;
7410;SDS011;3747;48.628;9.058;2023-08-17T03:15:51;48.57;;;29.10;;
7410;SDS011;3747;48.628;9.058;2023-08-17T03:18:18;47.13;;;29.20;;
7410;SDS011;3747;48.628;9.058;2023-08-17T03:20:44;57.87;;;31.87;;
7410;SDS011;3747;48.628;9.058;2023-08-17T03:23:12;66.67;;;33.20;;
7410;SDS011;3747;48.628;9.058;2023-08-17T03:25:39;62.33;;;32.27;;
7410;SDS011;3747;48.628;9.058;2023-08-17T03:28:06;57.53;;;30.23;;
7410;SDS011;3747;48.628;9.058;2023-08-17T03:30:33;53.93;;;29.43;;
7410;SDS011;3747;48.628;9.058;2023-08-17T03:33:02;60.63;;;30.67;;
7410;SDS011;3747;48.628;9.058;2023-08-17T03:35:29;99.30;;;37.30;;
7410;SDS011;3747;48.628;9.058;2023-08-17T03:37:55;181.43;;;43.90;;
7410;SDS011;3747;48.628;9.058;2023-08-17T03:40:23;167.57;;;42.83;;
7410;SDS011;3747;48.628;9.058;2023-08-17T03:42:50;325.27;;;53.73;;
7410;SDS011;3747;48.628;9.058;2023-08-17T03:45:17;103.73;;;35.53;;
7410;SDS011;3747;48.628;9.058;2023-08-17T03:47:44;448.87;;;59.67;;
7410;SDS011;3747;48.628;9.058;2023-08-17T03:50:10;243.10;;;41.03;;
7410;SDS011;3747;48.628;9.058;2023-08-17T03:52:37;517.00;;;67.13;;
7410;SDS011;3747;48.628;9.058;2023-08-17T03:55:04;76.23;;;30.80;;
7410;SDS011;3747;48.628;9.058;2023-08-17T03:57:33;98.40;;;30.23;;
7410;SDS011;3747;48.628;9.058;2023-08-17T04:00:00;72.30;;;29.47;;
7410;SDS011;3747;48.628;9.058;2023-08-17T04:02:27;82.17;;;32.20;;
7410;SDS011;3747;48.628;9.058;2023-08-17T04:04:54;105.90;;;32.77;;
7410;SDS011;3747;48.628;9.058;2023-08-17T04:07:20;258.40;;;45.00;;
7410;SDS011;3747;48.628;9.058;2023-08-17T04:09:47;148.53;;;35.57;;
7410;SDS011;3747;48.628;9.058;2023-08-17T04:12:14;93.30;;;29.90;;
7410;SDS011;3747;48.628;9.058;2023-08-17T04:14:42;183.87;;;37.40;;
7410;SDS011;3747;48.628;9.058;2023-08-17T04:17:09;46.70;;;22.50;;
7410;SDS011;3747;48.628;9.058;2023-08-17T04:19:35;117.97;;;28.77;;
7410;SDS011;3747;48.628;9.058;2023-08-17T04:22:02;392.60;;;52.97;;
7410;SDS011;3747;48.628;9.058;2023-08-17T04:24:29;174.67;;;33.33;;
7410;SDS011;3747;48.628;9.058;2023-08-17T04:26:56;485.27;;;59.67;;
7410;SDS011;3747;48.628;9.058;2023-08-17T04:29:22;359.23;;;44.13;;
7410;SDS011;3747;48.628;9.058;2023-08-17T04:31:50;124.00;;;33.90;;
7410;SDS011;3747;48.628;9.058;2023-08-17T04:34:17;313.97;;;47.87;;
7410;SDS011;3747;48.628;9.058;2023-08-17T04:36:44;187.20;;;34.80;;
7410;SDS011;3747;48.628;9.058;2023-08-17T04:39:11;392.40;;;51.03;;
7410;SDS011;3747;48.628;9.058;2023-08-17T04:41:37;291.93;;;43.80;;
7410;SDS011;3747;48.628;9.058;2023-08-17T04:44:05;287.50;;;41.80;;
7410;SDS011;3747;48.628;9.058;2023-08-17T04:46:32;102.07;;;31.23;;
7410;SDS011;3747;48.628;9.058;2023-08-17T04:49:00;273.03;;;45.93;;
7410;SDS011;3747;48.628;9.058;2023-08-17T04:51:26;172.90;;;34.33;;
7410;SDS011;3747;48.628;9.058;2023-08-17T04:53:53;241.03;;;40.40;;
7410;SDS011;3747;48.628;9.058;2023-08-17T04:56:20;214.10;;;36.07;;
7410;SDS011;3747;48.628;9.058;2023-08-17T04:58:47;216.17;;;33.93;;
7410;SDS011;3747;48.628;9.058;2023-08-17T05:01:13;212.20;;;33.33;;
7410;SDS011;3747;48.628;9.058;2023-08-17T05:03:40;373.47;;;46.93;;
7410;SDS011;3747;48.628;9.058;2023-08-17T05:06:08;353.60;;;45.87;;
7410;SDS011;3747;48.628;9.058;2023-08-17T05:08:35;420.07;;;49.60;;
7410;SDS011;3747;48.628;9.058;2023-08-17T05:11:01;489.13;;;50.57;;
7410;SDS011;3747;48.628;9.058;2023-08-17T05:13:28;396.57;;;46.97;;
7410;SDS011;3747;48.628;9.058;2023-08-17T05:15:55;134.17;;;24.20;;
7410;SDS011;3747;48.628;9.058;2023-08-17T05:18:21;288.60;;;38.23;;
7410;SDS011;3747;48.628;9.058;2023-08-17T05:20:48;269.37;;;44.27;;
7410;SDS011;3747;48.628;9.058;2023-08-17T05:23:16;196.20;;;33.23;;
7410;SDS011;3747;48.628;9.058;2023-08-17T05:25:45;76.80;;;23.20;;
7410;SDS011;3747;48.628;9.058;2023-08-17T05:28:12;53.53;;;21.33;;
7410;SDS011;3747;48.628;9.058;2023-08-17T05:30:39;237.43;;;32.77;;
7410;SDS011;3747;48.628;9.058;2023-08-17T05:33:05;202.33;;;31.97;;
7410;SDS011;3747;48.628;9.058;2023-08-17T05:35:32;205.90;;;31.57;;
7410;SDS011;3747;48.628;9.058;2023-08-17T05:37:59;148.90;;;28.23;;
7410;SDS011;3747;48.628;9.058;2023-08-17T05:40:28;347.10;;;41.10;;
7410;SDS011;3747;48.628;9.058;2023-08-17T05:42:56;212.23;;;27.60;;
7410;SDS011;3747;48.628;9.058;2023-08-17T05:45:22;92.83;;;26.37;;
7410;SDS011;3747;48.628;9.058;2023-08-17T05:47:49;51.37;;;20.63;;
7410;SDS011;3747;48.628;9.058;2023-08-17T05:50:16;240.33;;;33.23;;
7410;SDS011;3747;48.628;9.058;2023-08-17T05:52:42;171.13;;;26.73;;
7410;SDS011;3747;48.628;9.058;2023-08-17T05:55:09;36.97;;;15.47;;
7410;SDS011;3747;48.628;9.058;2023-08-17T05:57:37;208.37;;;29.00;;
7410;SDS011;3747;48.628;9.058;2023-08-17T06:00:04;274.37;;;32.97;;
7410;SDS011;3747;48.628;9.058;2023-08-17T06:02:35;70.63;;;19.30;;
7410;SDS011;3747;48.628;9.058;2023-08-17T06:05:01;29.13;;;15.47;;
7410;SDS011;3747;48.628;9.058;2023-08-17T06:07:28;41.80;;;15.80;;
7410;SDS011;3747;48.628;9.058;2023-08-17T06:09:55;215.97;;;32.40;;
7410;SDS011;3747;48.628;9.058;2023-08-17T06:12:21;136.87;;;21.43;;
7410;SDS011;3747;48.628;9.058;2023-08-17T06:14:49;72.53;;;18.67;;
7410;SDS011;3747;48.628;9.058;2023-08-17T06:17:16;186.93;;;31.27;;
7410;SDS011;3747;48.628;9.058;2023-08-17T06:19:43;118.90;;;22.40;;
7410;SDS011;3747;48.628;9.058;2023-08-17T06:22:09;230.23;;;30.00;;
7410;SDS011;3747;48.628;9.058;2023-08-17T06:24:37;255.83;;;31.20;;
7410;SDS011;3747;48.628;9.058;2023-08-17T06:27:03;201.13;;;23.83;;
7410;SDS011;3747;48.628;9.058;2023-08-17T06:29:30;178.57;;;29.63;;
7410;SDS011;3747;48.628;9.058;2023-08-17T06:31:58;217.67;;;31.47;;
7410;SDS011;3747;48.628;9.058;2023-08-17T06:34:25;141.77;;;23.50;;
7410;SDS011;3747;48.628;9.058;2023-08-17T06:36:58;158.33;;;26.20;;
7410;SDS011;3747;48.628;9.058;2023-08-17T06:39:26;30.33;;;14.67;;
7410;SDS011;3747;48.628;9.058;2023-08-17T06:41:53;25.30;;;16.23;;
7410;SDS011;3747;48.628;9.058;2023-08-17T06:44:19;21.17;;;15.37;;
7410;SDS011;3747;48.628;9.058;2023-08-17T06:46:46;36.53;;;16.83;;
7410;SDS011;3747;48.628;9.058;2023-08-17T06:49:15;25.50;;;14.77;;
7410;SDS011;3747;48.628;9.058;2023-08-17T06:51:42;21.90;;;14.33;;
7410;SDS011;3747;48.628;9.058;2023-08-17T06:54:08;18.47;;;13.23;;
7410;SDS011;3747;48.628;9.058;2023-08-17T06:56:35;19.80;;;13.20;;
7410;SDS011;3747;48.628;9.058;2023-08-17T06:59:02;16.53;;;12.20;;
7410;SDS011;3747;48.628;9.058;2023-08-17T07:01:29;14.83;;;11.70;;
7410;SDS011;3747;48.628;9.058;2023-08-17T07:03:55;15.50;;;11.90;;
7410;SDS011;3747;48.628;9.058;2023-08-17T07:06:24;13.00;;;10.93;;
7410;SDS011;3747;48.628;9.058;2023-08-17T07:08:50;10.37;;;9.33;;
7410;SDS011;3747;48.628;9.058;2023-08-17T07:11:17;12.07;;;9.80;;
7410;SDS011;3747;48.628;9.058;2023-08-17T07:13:44;11.53;;;9.70;;
7410;SDS011;3747;48.628;9.058;2023-08-17T07:16:11;14.60;;;11.00;;
7410;SDS011;3747;48.628;9.058;2023-08-17T07:18:39;11.20;;;10.00;;
7410;SDS011;3747;48.628;9.058;2023-08-17T07:21:06;9.00;;;8.20;;
7410;SDS011;3747;48.628;9.058;2023-08-17T07:23:34;8.50;;;7.53;;
7410;SDS011;3747;48.628;9.058;2023-08-17T07:26:00;8.57;;;7.70;;
7410;SDS011;3747;48.628;9.058;2023-08-17T07:28:27;8.23;;;7.33;;
7410;SDS011;3747;48.628;9.058;2023-08-17T07:30:54;8.43;;;7.67;;
7410;SDS011;3747;48.628;9.058;2023-08-17T07:33:20;8.97;;;8.07;;
7410;SDS011;3747;48.628;9.058;2023-08-17T07:35:47;10.43;;;8.37;;
7410;SDS011;3747;48.628;9.058;2023-08-17T07:38:14;7.40;;;6.80;;
7410;SDS011;3747;48.628;9.058;2023-08-17T07:40:42;7.60;;;6.80;;
7410;SDS011;3747;48.628;9.058;2023-08-17T07:43:08;8.40;;;7.57;;
7410;SDS011;3747;48.628;9.058;2023-08-17T07:45:35;6.77;;;6.23;;
7410;SDS011;3747;48.628;9.058;2023-08-17T07:48:02;6.70;;;6.20;;
7410;SDS011;3747;48.628;9.058;2023-08-17T07:50:29;8.00;;;7.27;;
7410;SDS011;3747;48.628;9.058;2023-08-17T07:52:56;7.47;;;6.87;;
7410;SDS011;3747;48.628;9.058;2023-08-17T07:55:22;7.47;;;6.77;;
7410;SDS011;3747;48.628;9.058;2023-08-17T07:57:50;7.67;;;7.07;;
7410;SDS011;3747;48.628;9.058;2023-08-17T08:00:17;8.47;;;7.67;;
7410;SDS011;3747;48.628;9.058;2023-08-17T08:02:45;9.03;;;8.13;;
7410;SDS011;3747;48.628;9.058;2023-08-17T08:05:12;8.63;;;7.83;;
7410;SDS011;3747;48.628;9.058;2023-08-17T08:07:39;7.93;;;7.13;;
7410;SDS011;3747;48.628;9.058;2023-08-17T08:10:06;7.20;;;6.50;;
7410;SDS011;3747;48.628;9.058;2023-08-17T08:12:33;8.10;;;7.30;;
7410;SDS011;3747;48.628;9.058;2023-08-17T08:15:01;8.10;;;7.40;;
7410;SDS011;3747;48.628;9.058;2023-08-17T08:17:28;7.73;;;6.93;;
7410;SDS011;3747;48.628;9.058;2023-08-17T08:19:55;6.70;;;6.20;;
7410;SDS011;3747;48.628;9.058;2023-08-17T08:22:22;6.17;;;5.67;;
7410;SDS011;3747;48.628;9.058;2023-08-17T08:25:06;6.17;;;5.57;;
7410;SDS011;3747;48.628;9.058;2023-08-17T08:27:33;7.47;;;6.87;;
7410;SDS011;3747;48.628;9.058;2023-08-17T08:30:01;6.63;;;6.13;;
7410;SDS011;3747;48.628;9.058;2023-08-17T08:32:28;6.43;;;5.77;;
7410;SDS011;3747;48.628;9.058;2023-08-17T08:34:55;7.37;;;6.67;;
7410;SDS011;3747;48.628;9.058;2023-08-17T08:37:21;6.43;;;5.93;;
7410;SDS011;3747;48.628;9.058;2023-08-17T08:39:48;5.93;;;5.33;;
7410;SDS011;3747;48.628;9.058;2023-08-17T08:42:16;7.40;;;6.67;;
7410;SDS011;3747;48.628;9.058;2023-08-17T08:44:43;5.20;;;4.77;;
7410;SDS011;3747;48.628;9.058;2023-08-17T08:47:12;4.23;;;3.93;;
7410;SDS011;3747;48.628;9.058;2023-08-17T08:49:39;4.80;;;4.40;;
7410;SDS011;3747;48.628;9.058;2023-08-17T08:52:10;4.40;;;4.10;;
7410;SDS011;3747;48.628;9.058;2023-08-17T08:54:44;4.83;;;4.43;;
7410;SDS011;3747;48.628;9.058;2023-08-17T08:59:56;4.50;;;4.20;;
7410;SDS011;3747;48.628;9.058;2023-08-17T09:02:26;3.53;;;3.23;;
7410;SDS011;3747;48.628;9.058;2023-08-17T09:04:53;4.88;;;3.95;;
7410;SDS011;3747;48.628;9.058;2023-08-17T09:07:20;4.77;;;4.43;;
7410;SDS011;3747;48.628;9.058;2023-08-17T09:09:55;4.20;;;3.80;;
7410;SDS011;3747;48.628;9.058;2023-08-17T09:12:22;4.32;;;4.03;;
7410;SDS011;3747;48.628;9.058;2023-08-17T09:14:51;4.10;;;3.67;;
7410;SDS011;3747;48.628;9.058;2023-08-17T09:23:56;3.90;;;3.00;;
7410;SDS011;3747;48.628;9.058;2023-08-17T09:26:23;3.67;;;3.40;;
7410;SDS011;3747;48.628;9.058;2023-08-17T09:28:52;4.47;;;3.88;;
7410;SDS011;3747;48.628;9.058;2023-08-17T09:31:22;4.43;;;4.03;;
7410;SDS011;3747;48.628;9.058;2023-08-17T09:33:51;3.78;;;3.58;;
7410;SDS011;3747;48.628;9.058;2023-08-17T09:36:19;3.72;;;3.17;;
7410;SDS011;3747;48.628;9.058;2023-08-17T09:38:47;4.03;;;3.72;;
7410;SDS011;3747;48.628;9.058;2023-08-17T09:41:18;4.30;;;4.00;;
7410;SDS011;3747;48.628;9.058;2023-08-17T09:43:46;3.75;;;3.45;;
7410;SDS011;3747;48.628;9.058;2023-08-17T09:46:13;3.63;;;3.42;;
7410;SDS011;3747;48.628;9.058;2023-08-17T09:48:42;3.65;;;3.40;;
7410;SDS011;3747;48.628;9.058;2023-08-17T09:51:10;4.25;;;3.92;;
7410;SDS011;3747;48.628;9.058;2023-08-17T09:53:40;3.45;;;3.15;;
7410;SDS011;3747;48.628;9.058;2023-08-17T09:56:07;4.93;;;4.35;;
7410;SDS011;3747;48.628;9.058;2023-08-17T09:58:37;4.43;;;3.88;;
7410;SDS011;3747;48.628;9.058;2023-08-17T10:01:04;4.30;;;4.00;;
7410;SDS011;3747;48.628;9.058;2023-08-17T10:03:32;4.53;;;4.18;;
7410;SDS011;3747;48.628;9.058;2023-08-17T10:06:01;4.85;;;4.45;;
7410;SDS011;3747;48.628;9.058;2023-08-17T10:08:30;4.25;;;3.97;;
7410;SDS011;3747;48.628;9.058;2023-08-17T10:10:59;4.43;;;4.13;;
7410;SDS011;3747;48.628;9.058;2023-08-17T10:13:31;4.00;;;3.67;;
7410;SDS011;3747;48.628;9.058;2023-08-17T10:16:03;4.57;;;4.27;;
7410;SDS011;3747;48.628;9.058;2023-08-17T10:21:39;5.20;;;4.80;;
7410;SDS011;3747;48.628;9.058;2023-08-17T10:24:12;4.00;;;3.80;;
7410;SDS011;3747;48.628;9.058;2023-08-17T10:26:39;5.07;;;4.60;;
7410;SDS011;3747;48.628;9.058;2023-08-17T10:29:09;4.13;;;3.93;;
7410;SDS011;3747;48.628;9.058;2023-08-17T10:31:47;4.20;;;3.90;;
7410;SDS011;3747;48.628;9.058;2023-08-17T10:34:15;5.20;;;4.80;;
7410;SDS011;3747;48.628;9.058;2023-08-17T10:36:44;4.70;;;4.33;;
7410;SDS011;3747;48.628;9.058;2023-08-17T10:39:21;4.97;;;4.40;;
7410;SDS011;3747;48.628;9.058;2023-08-17T10:48:00;4.10;;;3.90;;
7410;SDS011;3747;48.628;9.058;2023-08-17T10:53:49;5.15;;;4.75;;
7410;SDS011;3747;48.628;9.058;2023-08-17T10:56:19;5.68;;;5.00;;
7410;SDS011;3747;48.628;9.058;2023-08-17T10:58:45;5.63;;;5.18;;
7410;SDS011;3747;48.628;9.058;2023-08-17T11:01:12;5.38;;;4.80;;
7410;SDS011;3747;48.628;9.058;2023-08-17T11:03:46;5.20;;;4.65;;
7410;SDS011;3747;48.628;9.058;2023-08-17T11:06:14;4.95;;;4.63;;
7410;SDS011;3747;48.628;9.058;2023-08-17T11:08:51;5.07;;;4.75;;
7410;SDS011;3747;48.628;9.058;2023-08-17T11:11:20;5.45;;;5.05;;
7410;SDS011;3747;48.628;9.058;2023-08-17T11:13:47;5.35;;;4.85;;
7410;SDS011;3747;48.628;9.058;2023-08-17T11:16:15;5.65;;;4.50;;
7410;SDS011;3747;48.628;9.058;2023-08-17T11:18:44;4.35;;;4.05;;
7410;SDS011;3747;48.628;9.058;2023-08-17T11:21:13;5.38;;;4.88;;
7410;SDS011;3747;48.628;9.058;2023-08-17T11:23:47;5.00;;;4.70;;
7410;SDS011;3747;48.628;9.058;2023-08-17T11:26:15;5.07;;;4.45;;
7410;SDS011;3747;48.628;9.058;2023-08-17T11:28:42;5.68;;;5.20;;
7410;SDS011;3747;48.628;9.058;2023-08-17T11:31:10;4.65;;;4.25;;
7410;SDS011;3747;48.628;9.058;2023-08-17T11:33:39;5.28;;;4.80;;
7410;SDS011;3747;48.628;9.058;2023-08-17T11:36:07;5.18;;;4.78;;
7410;SDS011;3747;48.628;9.058;2023-08-17T11:38:35;5.00;;;4.50;;
7410;SDS011;3747;48.628;9.058;2023-08-17T11:41:03;4.75;;;4.45;;
7410;SDS011;3747;48.628;9.058;2023-08-17T11:43:31;5.20;;;4.80;;
7410;SDS011;3747;48.628;9.058;2023-08-17T11:45:59;5.35;;;4.75;;
7410;SDS011;3747;48.628;9.058;2023-08-17T11:48:26;5.07;;;4.60;;
7410;SDS011;3747;48.628;9.058;2023-08-17T11:50:53;6.13;;;5.15;;
7410;SDS011;3747;48.628;9.058;2023-08-17T11:53:22;5.07;;;4.70;;
7410;SDS011;3747;48.628;9.058;2023-08-17T11:55:49;4.50;;;4.15;;
7410;SDS011;3747;48.628;9.058;2023-08-17T11:58:15;5.00;;;4.70;;
7410;SDS011;3747;48.628;9.058;2023-08-17T12:00:43;4.82;;;4.43;;
7410;SDS011;3747;48.628;9.058;2023-08-17T12:03:12;4.35;;;4.00;;
7410;SDS011;3747;48.628;9.058;2023-08-17T12:05:40;4.53;;;4.22;;
7410;SDS011;3747;48.628;9.058;2023-08-17T12:08:07;4.72;;;4.43;;
7410;SDS011;3747;48.628;9.058;2023-08-17T12:10:36;5.47;;;4.33;;
7410;SDS011;3747;48.628;9.058;2023-08-17T12:13:03;5.33;;;4.63;;
7410;SDS011;3747;48.628;9.058;2023-08-17T12:15:30;6.87;;;4.77;;
7410;SDS011;3747;48.628;9.058;2023-08-17T12:17:58;4.67;;;4.23;;
7410;SDS011;3747;48.628;9.058;2023-08-17T12:20:26;4.67;;;4.30;;
7410;SDS011;3747;48.628;9.058;2023-08-17T12:22:53;5.37;;;4.73;;
7410;SDS011;3747;48.628;9.058;2023-08-17T12:25:20;5.10;;;4.60;;
7410;SDS011;3747;48.628;9.058;2023-08-17T12:27:48;5.57;;;4.90;;
7410;SDS011;3747;48.628;9.058;2023-08-17T12:30:23;4.93;;;4.53;;
7410;SDS011;3747;48.628;9.058;2023-08-17T12:32:51;5.30;;;4.90;;
7410;SDS011;3747;48.628;9.058;2023-08-17T12:35:18;4.80;;;4.50;;
7410;SDS011;3747;48.628;9.058;2023-08-17T12:37:46;5.30;;;4.90;;
7410;SDS011;3747;48.628;9.058;2023-08-17T12:40:13;4.93;;;4.43;;
7410;SDS011;3747;48.628;9.058;2023-08-17T12:42:40;4.97;;;4.57;;
7410;SDS011;3747;48.628;9.058;2023-08-17T12:45:08;5.50;;;5.10;;
7410;SDS011;3747;48.628;9.058;2023-08-17T12:47:36;5.00;;;4.60;;
7410;SDS011;3747;48.628;9.058;2023-08-17T12:50:03;5.57;;;5.17;;
7410;SDS011;3747;48.628;9.058;2023-08-17T12:52:30;4.70;;;4.30;;
7410;SDS011;3747;48.628;9.058;2023-08-17T12:54:57;5.70;;;5.20;;
7410;SDS011;3747;48.628;9.058;2023-08-17T12:57:23;5.53;;;5.03;;
7410;SDS011;3747;48.628;9.058;2023-08-17T12:59:51;5.13;;;4.73;;
7410;SDS011;3747;48.628;9.058;2023-08-17T13:02:20;4.90;;;4.50;;
7410;SDS011;3747;48.628;9.058;2023-08-17T13:04:47;5.10;;;4.60;;
7410;SDS011;3747;48.628;9.058;2023-08-17T13:07:14;5.80;;;5.30;;
7410;SDS011;3747;48.628;9.058;2023-08-17T13:09:41;5.63;;;5.13;;
7410;SDS011;3747;48.628;9.058;2023-08-17T13:12:16;5.83;;;5.33;;
7410;SDS011;3747;48.628;9.058;2023-08-17T13:14:43;5.80;;;4.87;;
7410;SDS011;3747;48.628;9.058;2023-08-17T13:17:09;5.40;;;4.70;;
7410;SDS011;3747;48.628;9.058;2023-08-17T13:19:38;5.13;;;4.67;;
7410;SDS011;3747;48.628;9.058;2023-08-17T13:22:04;5.77;;;5.23;;
7410;SDS011;3747;48.628;9.058;2023-08-17T13:24:31;7.13;;;5.13;;
7410;SDS011;3747;48.628;9.058;2023-08-17T13:26:58;7.93;;;5.23;;
7410;SDS011;3747;48.628;9.058;2023-08-17T13:29:24;5.93;;;5.10;;
7410;SDS011;3747;48.628;9.058;2023-08-17T13:31:51;5.80;;;5.07;;
7410;SDS011;3747;48.628;9.058;2023-08-17T13:34:18;6.07;;;5.50;;
7410;SDS011;3747;48.628;9.058;2023-08-17T13:36:46;5.53;;;5.13;;
7410;SDS011;3747;48.628;9.058;2023-08-17T13:39:12;6.30;;;5.70;;
7410;SDS011;3747;48.628;9.058;2023-08-17T13:41:39;6.00;;;5.50;;
7410;SDS011;3747;48.628;9.058;2023-08-17T13:44:07;7.33;;;6.10;;
7410;SDS011;3747;48.628;9.058;2023-08-17T13:46:44;6.57;;;5.77;;
7410;SDS011;3747;48.628;9.058;2023-08-17T13:49:11;6.83;;;6.07;;
7410;SDS011;3747;48.628;9.058;2023-08-17T13:51:37;5.97;;;5.40;;
7410;SDS011;3747;48.628;9.058;2023-08-17T13:54:05;6.73;;;5.67;;
7410;SDS011;3747;48.628;9.058;2023-08-17T13:56:32;7.77;;;6.73;;
7410;SDS011;3747;48.628;9.058;2023-08-17T13:58:59;8.60;;;5.97;;
7410;SDS011;3747;48.628;9.058;2023-08-17T14:01:27;6.33;;;5.77;;
7410;SDS011;3747;48.628;9.058;2023-08-17T14:03:54;7.20;;;6.50;;
7410;SDS011;3747;48.628;9.058;2023-08-17T14:06:20;8.77;;;7.00;;
7410;SDS011;3747;48.628;9.058;2023-08-17T14:08:47;7.03;;;5.70;;
7410;SDS011;3747;48.628;9.058;2023-08-17T14:11:15;6.63;;;6.03;;
7410;SDS011;3747;48.628;9.058;2023-08-17T14:13:42;6.60;;;5.90;;
7410;SDS011;3747;48.628;9.058;2023-08-17T14:16:08;6.97;;;6.37;;
7410;SDS011;3747;48.628;9.058;2023-08-17T14:18:35;7.00;;;6.00;;
7410;SDS011;3747;48.628;9.058;2023-08-17T14:21:02;6.87;;;6.37;;
7410;SDS011;3747;48.628;9.058;2023-08-17T14:23:28;7.53;;;6.80;;
7410;SDS011;3747;48.628;9.058;2023-08-17T14:25:55;7.50;;;6.57;;
7410;SDS011;3747;48.628;9.058;2023-08-17T14:28:23;8.87;;;7.63;;
7410;SDS011;3747;48.628;9.058;2023-08-17T14:30:51;7.83;;;6.40;;
7410;SDS011;3747;48.628;9.058;2023-08-17T14:33:18;8.10;;;6.90;;
7410;SDS011;3747;48.628;9.058;2023-08-17T14:35:44;7.87;;;6.77;;
7410;SDS011;3747;48.628;9.058;2023-08-17T14:38:11;7.63;;;6.47;;
7410;SDS011;3747;48.628;9.058;2023-08-17T14:40:41;6.10;;;5.00;;
7410;SDS011;3747;48.628;9.058;2023-08-17T14:43:08;4.93;;;4.37;;
7410;SDS011;3747;48.628;9.058;2023-08-17T14:45:37;5.77;;;4.90;;
7410;SDS011;3747;48.628;9.058;2023-08-17T14:48:04;5.93;;;4.20;;
7410;SDS011;3747;48.628;9.058;2023-08-17T14:50:32;6.97;;;4.30;;
7410;SDS011;3747;48.628;9.058;2023-08-17T14:52:59;6.77;;;5.30;;
7410;SDS011;3747;48.628;9.058;2023-08-17T14:55:27;8.83;;;6.47;;
7410;SDS011;3747;48.628;9.058;2023-08-17T14:57:54;8.47;;;6.27;;
7410;SDS011;3747;48.628;9.058;2023-08-17T15:00:20;8.57;;;6.77;;
7410;SDS011;3747;48.628;9.058;2023-08-17T15:02:48;7.47;;;6.03;;
7410;SDS011;3747;48.628;9.058;2023-08-17T15:05:15;6.90;;;6.20;;
7410;SDS011;3747;48.628;9.058;2023-08-17T15:07:42;8.20;;;6.33;;
7410;SDS011;3747;48.628;9.058;2023-08-17T15:10:09;6.93;;;6.33;;
7410;SDS011;3747;48.628;9.058;2023-08-17T15:12:36;7.43;;;6.07;;
7410;SDS011;3747;48.628;9.058;2023-08-17T15:15:03;7.97;;;6.40;;
7410;SDS011;3747;48.628;9.058;2023-08-17T15:17:30;8.37;;;5.83;;
7410;SDS011;3747;48.628;9.058;2023-08-17T15:19:59;8.33;;;6.33;;
7410;SDS011;3747;48.628;9.058;2023-08-17T15:22:26;6.10;;;5.53;;
7410;SDS011;3747;48.628;9.058;2023-08-17T15:24:53;6.47;;;5.85;;